createdAt,value
2023-05-23T00:01:18.729Z,74.95
2023-05-23T00:03:47.838Z,75.08
2023-05-23T00:06:21.462Z,75.17
2023-05-23T00:08:50.844Z,75.28
2023-05-23T00:11:20.541Z,75.42
2023-05-23T00:13:48.400Z,75.52
2023-05-23T00:16:16.722Z,75.62
2023-05-23T00:18:45.983Z,75.94
2023-05-23T00:21:14.020Z,75.67
2023-05-23T00:23:44.910Z,76.05
2023-05-23T00:26:12.949Z,76.22
2023-05-23T00:28:42.294Z,76.37
2023-05-23T00:31:10.514Z,76.53
2023-05-23T00:33:38.840Z,76.47
2023-05-23T00:36:06.864Z,76.53
2023-05-23T00:38:34.859Z,76.49
2023-05-23T00:41:02.801Z,76.67
2023-05-23T00:43:31.703Z,76.74
2023-05-23T00:46:00.890Z,76.94
2023-05-23T00:48:29.721Z,77.07
2023-05-23T00:50:58.197Z,77.19
2023-05-23T00:53:26.949Z,77.41
2023-05-23T00:55:55.254Z,77.32
2023-05-23T00:58:24.435Z,77.37
2023-05-23T01:00:54.621Z,77.58
2023-05-23T01:03:24.177Z,77.69
2023-05-23T01:05:53.051Z,77.77
2023-05-23T01:08:22.124Z,77.81
2023-05-23T01:10:51.572Z,78.00
2023-05-23T01:13:47.977Z,77.94
2023-05-23T01:16:28.351Z,78.21
2023-05-23T01:19:08.778Z,78.10
2023-05-23T01:21:38.392Z,78.33
2023-05-23T01:24:06.254Z,78.36
2023-05-23T01:26:43.324Z,78.42
2023-05-23T01:29:14.852Z,78.34
2023-05-23T01:31:50.189Z,78.51
2023-05-23T01:34:19.678Z,78.68
2023-05-23T01:36:50.872Z,78.73
2023-05-23T01:39:18.741Z,78.91
2023-05-23T01:41:47.039Z,78.98
2023-05-23T01:44:15.652Z,78.92
2023-05-23T01:46:45.081Z,78.91
2023-05-23T01:49:14.548Z,79.07
2023-05-23T01:51:42.903Z,79.21
2023-05-23T01:54:11.712Z,79.38
2023-05-23T01:56:41.649Z,79.50
2023-05-23T01:59:10.316Z,79.64
2023-05-23T02:01:38.777Z,79.70
2023-05-23T02:04:07.063Z,79.78
2023-05-23T02:06:35.081Z,79.72
2023-05-23T02:09:03.211Z,79.81
2023-05-23T02:11:33.779Z,79.99
2023-05-23T02:14:02.725Z,80.03
2023-05-23T02:16:30.846Z,80.27
2023-05-23T02:18:59.531Z,80.21
2023-05-23T02:21:27.429Z,80.17
2023-05-23T02:23:55.318Z,80.32
2023-05-23T02:26:23.403Z,80.40
2023-05-23T02:28:51.525Z,80.34
2023-05-23T02:31:19.529Z,80.47
2023-05-23T02:33:47.516Z,80.56
2023-05-23T02:36:16.124Z,80.86
2023-05-23T02:38:45.495Z,80.81
2023-05-23T02:41:13.398Z,80.98
2023-05-23T02:43:41.863Z,80.65
2023-05-23T02:46:10.051Z,80.90
2023-05-23T02:48:38.081Z,81.10
2023-05-23T02:51:06.978Z,81.10
2023-05-23T02:53:34.963Z,81.20
2023-05-23T02:56:03.103Z,81.31
2023-05-23T02:58:31.986Z,81.20
2023-05-23T03:00:59.814Z,81.32
2023-05-23T03:03:28.953Z,81.34
2023-05-23T03:06:05.218Z,81.67
2023-05-23T03:08:33.736Z,81.72
2023-05-23T03:11:01.720Z,81.71
2023-05-23T03:13:30.881Z,81.70
2023-05-23T03:15:59.491Z,81.87
2023-05-23T03:18:27.649Z,81.96
2023-05-23T03:20:57.334Z,82.05
2023-05-23T03:23:25.632Z,81.86
2023-05-23T03:25:53.681Z,81.98
2023-05-23T03:28:22.403Z,81.99
2023-05-23T03:30:50.580Z,82.03
2023-05-23T03:33:18.715Z,82.18
2023-05-23T03:35:46.995Z,82.31
2023-05-23T03:38:15.367Z,82.45
2023-05-23T03:40:43.509Z,82.45
2023-05-23T03:43:12.475Z,82.56
2023-05-23T03:45:42.207Z,82.52
2023-05-23T03:48:14.008Z,82.73
2023-05-23T03:50:43.197Z,82.61
2023-05-23T03:53:12.011Z,82.73
2023-05-23T03:55:40.159Z,82.98
2023-05-23T03:58:08.812Z,82.98
2023-05-23T04:00:37.435Z,83.04
2023-05-23T04:03:09.181Z,83.31
2023-05-23T04:05:37.773Z,83.28
2023-05-23T04:08:05.941Z,83.23
2023-05-23T04:10:34.342Z,83.26
2023-05-23T04:13:02.596Z,83.45
2023-05-23T04:15:30.763Z,83.56
2023-05-23T04:18:04.487Z,83.56
2023-05-23T04:20:32.679Z,83.57
2023-05-23T04:23:01.326Z,83.68
2023-05-23T04:25:31.865Z,83.72
2023-05-23T04:28:12.308Z,84.70
2023-05-23T04:30:40.507Z,84.47
2023-05-23T04:33:10.189Z,83.05
2023-05-23T04:35:41.451Z,82.48
2023-05-23T04:38:10.346Z,82.40
2023-05-23T04:40:38.516Z,82.84
2023-05-23T04:43:14.543Z,82.49
2023-05-23T04:53:31.370Z,84.08
2023-05-23T04:56:00.047Z,82.03
2023-05-23T04:58:29.670Z,82.11
2023-05-23T05:01:01.598Z,81.92
2023-05-23T05:03:29.754Z,79.84
2023-05-23T05:05:58.064Z,79.16
2023-05-23T05:08:26.415Z,79.07
2023-05-23T05:10:57.450Z,79.14
2023-05-23T05:13:26.027Z,80.22
2023-05-23T05:15:56.117Z,79.50
2023-05-23T05:18:29.095Z,79.06
2023-05-23T05:20:58.887Z,78.78
2023-05-23T05:23:30.357Z,79.28
2023-05-23T05:25:59.026Z,78.61
2023-05-23T05:28:26.966Z,78.37
2023-05-23T05:30:55.127Z,78.55
2023-05-23T05:33:25.499Z,78.50
2023-05-23T05:36:04.814Z,78.82
2023-05-23T05:38:32.910Z,79.03
2023-05-23T05:41:01.265Z,78.84
2023-05-23T05:43:34.497Z,78.90
2023-05-23T05:46:02.890Z,78.85
2023-05-23T05:48:31.816Z,79.05
2023-05-23T05:51:03.725Z,78.95
2023-05-23T05:53:35.525Z,78.80
2023-05-23T05:56:04.123Z,78.69
2023-05-23T05:58:33.854Z,78.31
2023-05-23T06:01:05.937Z,78.15
2023-05-23T06:03:34.387Z,77.88
2023-05-23T06:06:02.599Z,78.11
2023-05-23T06:08:30.627Z,78.16
2023-05-23T06:10:58.503Z,77.76
2023-05-23T06:13:27.263Z,77.57
2023-05-23T06:15:55.584Z,77.73
2023-05-23T06:18:24.217Z,78.22
2023-05-23T06:20:52.621Z,78.16
2023-05-23T06:23:22.243Z,78.11
2023-05-23T06:25:50.433Z,77.68
2023-05-23T06:28:18.368Z,77.25
2023-05-23T06:30:47.246Z,76.98
2023-05-23T06:33:16.727Z,75.84
2023-05-23T06:35:44.568Z,74.90
2023-05-23T06:38:12.709Z,75.22
2023-05-23T06:40:41.619Z,75.13
2023-05-23T06:43:11.255Z,74.56
2023-05-23T06:45:50.116Z,74.42
2023-05-23T06:48:18.258Z,73.65
2023-05-23T06:50:46.494Z,73.07
2023-05-23T06:53:18.892Z,72.72
2023-05-23T06:55:47.405Z,71.98
2023-05-23T06:58:17.211Z,71.41
2023-05-23T07:00:45.840Z,71.59
2023-05-23T07:03:23.814Z,71.07
2023-05-23T07:05:52.786Z,70.73
2023-05-23T07:08:21.610Z,70.97
2023-05-23T07:11:00.706Z,69.86
2023-05-23T07:13:38.407Z,69.66
2023-05-23T07:16:06.794Z,69.17
2023-05-23T07:18:38.710Z,67.15
2023-05-23T07:21:07.200Z,66.32
2023-05-23T07:23:35.189Z,66.05
2023-05-23T07:26:03.646Z,65.84
2023-05-23T07:28:48.752Z,66.04
2023-05-23T07:31:17.097Z,64.52
2023-05-23T07:33:45.742Z,64.71
2023-05-23T07:36:18.102Z,62.91
2023-05-23T07:38:46.989Z,62.30
2023-05-23T07:41:15.375Z,61.61
2023-05-23T07:43:43.367Z,61.56
2023-05-23T07:46:11.782Z,60.54
2023-05-23T07:48:40.166Z,60.49
2023-05-23T07:51:08.140Z,60.00
2023-05-23T07:53:40.249Z,59.23
2023-05-23T07:56:11.018Z,58.71
2023-05-23T07:58:40.340Z,57.98
2023-05-23T08:01:08.968Z,56.81
2023-05-23T08:03:56.090Z,55.97
2023-05-23T08:06:29.851Z,55.50
2023-05-23T08:08:59.226Z,54.76
2023-05-23T08:11:30.433Z,54.04
2023-05-23T08:14:01.553Z,53.72
2023-05-23T08:16:39.057Z,53.38
2023-05-23T08:19:14.601Z,54.22
2023-05-23T08:21:43.316Z,53.50
2023-05-23T08:24:14.918Z,52.52
2023-05-23T08:26:43.968Z,51.31
2023-05-23T08:29:14.116Z,51.60
2023-05-23T08:31:43.312Z,51.51
2023-05-23T08:34:11.615Z,50.99
2023-05-23T08:36:43.248Z,50.86
2023-05-23T08:39:15.275Z,50.81
2023-05-23T08:41:57.629Z,49.85
2023-05-23T08:44:25.810Z,49.57
2023-05-23T08:47:02.531Z,48.60
2023-05-23T08:49:49.254Z,48.50
2023-05-23T08:52:22.357Z,47.73
2023-05-23T08:54:52.906Z,47.23
2023-05-23T08:57:21.439Z,46.93
2023-05-23T08:59:54.972Z,46.25
2023-05-23T09:02:24.943Z,45.56
2023-05-23T09:04:56.050Z,44.77
2023-05-23T09:07:29.527Z,44.72
2023-05-23T09:09:58.860Z,44.45
2023-05-23T09:12:26.941Z,43.56
2023-05-23T09:14:55.509Z,43.22
2023-05-23T09:17:25.618Z,43.33
2023-05-23T09:19:54.536Z,43.31
2023-05-23T09:22:37.931Z,43.30
2023-05-23T09:25:14.261Z,42.96
2023-05-23T09:27:46.601Z,42.77
2023-05-23T09:30:17.806Z,42.06
2023-05-23T09:33:04.086Z,42.13
2023-05-23T09:35:33.851Z,41.68
2023-05-23T09:38:02.052Z,41.53
2023-05-23T09:40:34.759Z,41.73
2023-05-23T09:43:05.784Z,41.03
2023-05-23T09:45:34.698Z,40.78
2023-05-23T09:48:03.292Z,40.65
2023-05-23T09:50:33.987Z,40.43
2023-05-23T09:53:03.200Z,40.87
2023-05-23T09:55:31.635Z,40.61
2023-05-23T09:58:00.852Z,40.31
2023-05-23T10:00:29.294Z,40.54
2023-05-23T10:03:17.598Z,40.23
2023-05-23T10:05:48.081Z,39.82
2023-05-23T10:08:27.409Z,39.72
2023-05-23T10:10:58.131Z,39.48
2023-05-23T10:13:27.978Z,39.40
2023-05-23T10:16:03.103Z,38.39
2023-05-23T10:18:39.368Z,38.02
2023-05-23T10:21:12.826Z,37.66
2023-05-23T10:23:42.873Z,37.36
2023-05-23T10:26:11.675Z,36.47
2023-05-23T10:28:42.403Z,36.16
2023-05-23T10:31:11.834Z,37.17
2023-05-23T10:33:45.475Z,37.16
2023-05-23T10:36:37.968Z,36.94
2023-05-23T10:39:14.701Z,35.94
2023-05-23T10:41:52.070Z,35.06
2023-05-23T10:44:30.529Z,35.24
2023-05-23T10:47:04.128Z,35.31
2023-05-23T10:49:46.646Z,35.14
2023-05-23T10:52:17.213Z,35.33
2023-05-23T10:54:48.938Z,35.30
2023-05-23T10:57:19.145Z,35.25
2023-05-23T10:59:49.976Z,35.41
2023-05-23T11:02:27.633Z,35.10
2023-05-23T11:05:33.979Z,35.26
2023-05-23T11:08:27.442Z,34.90
2023-05-23T11:11:05.025Z,34.97
2023-05-23T11:14:00.492Z,34.44
2023-05-23T11:16:30.152Z,33.95
2023-05-23T11:19:18.499Z,33.89
2023-05-23T11:21:53.224Z,34.10
2023-05-23T11:24:21.721Z,33.71
2023-05-23T11:27:04.142Z,33.92
2023-05-23T11:29:32.139Z,33.49
2023-05-23T11:32:00.216Z,33.50
2023-05-23T11:34:28.399Z,32.96
2023-05-23T11:36:56.597Z,32.86
2023-05-23T11:39:24.840Z,32.20
2023-05-23T11:42:01.116Z,32.18
2023-05-23T11:44:29.361Z,32.74
2023-05-23T11:47:05.023Z,32.67
2023-05-23T11:49:36.475Z,32.17
2023-05-23T11:52:09.486Z,32.31
2023-05-23T11:54:37.668Z,32.02
2023-05-23T11:57:05.730Z,32.38
2023-05-23T11:59:34.518Z,32.16
2023-05-23T12:02:03.825Z,32.35
2023-05-23T12:04:31.756Z,32.58
2023-05-23T12:06:59.852Z,32.91
2023-05-23T12:09:27.760Z,32.56
2023-05-23T12:11:55.862Z,32.00
2023-05-23T12:14:23.978Z,31.92
2023-05-23T12:16:52.871Z,31.97
2023-05-23T12:19:21.069Z,32.26
2023-05-23T12:21:49.639Z,32.38
2023-05-23T12:24:19.907Z,32.23
2023-05-23T12:26:49.765Z,31.52
2023-05-23T12:29:34.818Z,31.54
2023-05-23T12:32:05.486Z,31.37
2023-05-23T12:34:33.520Z,32.02
2023-05-23T12:39:36.974Z,32.24
2023-05-23T12:49:46.730Z,32.61
2023-05-23T12:52:14.642Z,32.53
2023-05-23T12:54:42.969Z,32.85
2023-05-23T12:57:10.805Z,32.12
2023-05-23T12:59:38.909Z,31.71
2023-05-23T13:02:07.198Z,31.24
2023-05-23T13:04:35.130Z,31.61
2023-05-23T13:07:03.424Z,31.06
2023-05-23T13:09:31.406Z,31.31
2023-05-23T13:11:59.660Z,31.40
2023-05-23T13:14:27.624Z,30.35
2023-05-23T13:16:55.977Z,30.96
2023-05-23T13:19:23.886Z,31.55
2023-05-23T13:21:52.247Z,31.52
2023-05-23T13:24:21.473Z,32.03
2023-05-23T13:26:49.472Z,31.84
2023-05-23T13:29:18.407Z,31.42
2023-05-23T13:31:47.200Z,31.25
2023-05-23T13:34:15.568Z,31.49
2023-05-23T13:36:43.425Z,32.18
2023-05-23T13:39:11.507Z,31.41
2023-05-23T13:41:39.578Z,31.76
2023-05-23T13:44:07.607Z,32.08
2023-05-23T13:46:35.792Z,31.10
2023-05-23T13:49:03.939Z,31.19
2023-05-23T13:51:32.739Z,31.26
2023-05-23T13:54:00.879Z,31.32
2023-05-23T13:56:29.606Z,31.37
2023-05-23T13:58:57.691Z,31.16
2023-05-23T14:01:25.627Z,31.41
2023-05-23T14:03:53.581Z,31.69
2023-05-23T14:06:21.718Z,32.02
2023-05-23T14:08:49.719Z,32.45
2023-05-23T14:11:17.799Z,32.27
2023-05-23T14:13:45.897Z,32.35
2023-05-23T14:16:14.110Z,31.74
2023-05-23T14:18:42.488Z,31.72
2023-05-23T14:21:12.922Z,31.53
2023-05-23T14:23:40.918Z,32.53
2023-05-23T14:26:08.896Z,32.55
2023-05-23T14:28:37.489Z,32.81
2023-05-23T14:31:06.233Z,32.35
2023-05-23T14:33:34.895Z,32.06
2023-05-23T14:36:03.311Z,32.39
2023-05-23T14:38:31.384Z,33.04
2023-05-23T14:41:00.142Z,32.95
2023-05-23T14:43:28.237Z,32.34
2023-05-23T14:45:56.275Z,32.57
2023-05-23T14:48:24.404Z,33.01
2023-05-23T14:50:52.641Z,33.02
2023-05-23T14:53:24.219Z,32.97
2023-05-23T14:55:52.029Z,33.37
2023-05-23T14:58:21.833Z,33.10
2023-05-23T15:00:49.766Z,32.23
2023-05-23T15:03:18.727Z,32.90
2023-05-23T15:05:48.691Z,34.79
2023-05-23T15:08:18.352Z,35.31
2023-05-23T15:10:46.478Z,34.97
2023-05-23T15:13:14.624Z,34.24
2023-05-23T15:15:43.060Z,34.61
2023-05-23T15:18:21.316Z,33.87
2023-05-23T15:20:56.337Z,33.60
2023-05-23T15:23:24.291Z,33.26
2023-05-23T15:25:52.308Z,33.83
2023-05-23T15:28:20.894Z,33.27
2023-05-23T15:30:50.148Z,34.14
2023-05-23T15:33:18.554Z,35.03
2023-05-23T15:35:47.158Z,35.54
2023-05-23T15:38:17.140Z,35.85
2023-05-23T15:40:49.119Z,35.46
2023-05-23T15:43:17.324Z,36.49
2023-05-23T15:45:45.605Z,36.27
2023-05-23T15:48:13.904Z,37.34
2023-05-23T15:50:42.768Z,36.98
2023-05-23T15:53:11.724Z,37.60
2023-05-23T15:55:42.517Z,37.52
2023-05-23T15:58:11.474Z,37.44
2023-05-23T16:00:40.044Z,38.12
2023-05-23T16:03:08.443Z,38.09
2023-05-23T16:05:36.822Z,37.77
2023-05-23T16:08:05.183Z,37.70
2023-05-23T16:10:33.544Z,37.89
2023-05-23T16:13:02.811Z,38.27
2023-05-23T16:15:31.314Z,37.90
2023-05-23T16:18:00.309Z,38.08
2023-05-23T16:20:29.403Z,37.26
2023-05-23T16:22:57.824Z,37.67
2023-05-23T16:25:27.050Z,37.39
2023-05-23T16:27:55.462Z,37.71
2023-05-23T16:30:26.539Z,38.11
2023-05-23T16:32:55.203Z,38.47
2023-05-23T16:35:23.661Z,39.19
2023-05-23T16:37:51.645Z,39.39
2023-05-23T16:40:19.827Z,38.43
2023-05-23T16:42:47.902Z,38.70
2023-05-23T16:45:16.050Z,38.95
2023-05-23T16:47:44.254Z,38.94
2023-05-23T16:50:12.372Z,39.75
2023-05-23T16:52:40.570Z,39.82
2023-05-23T16:55:08.628Z,40.28
2023-05-23T16:57:37.092Z,40.26
2023-05-23T17:00:06.312Z,40.35
2023-05-23T17:02:34.662Z,40.32
2023-05-23T17:05:04.027Z,39.80
2023-05-23T17:07:31.906Z,39.82
2023-05-23T17:09:59.907Z,40.00
2023-05-23T17:12:27.833Z,39.90
2023-05-23T17:14:55.776Z,40.53
2023-05-23T17:17:23.767Z,40.90
2023-05-23T17:19:52.557Z,41.76
2023-05-23T17:22:20.478Z,42.49
2023-05-23T17:24:48.753Z,42.45
2023-05-23T17:27:16.558Z,42.40
2023-05-23T17:29:44.399Z,42.64
2023-05-23T17:32:12.380Z,42.53
2023-05-23T17:34:40.400Z,42.50
2023-05-23T17:37:08.546Z,43.00
2023-05-23T17:39:36.593Z,43.09
2023-05-23T17:42:05.707Z,43.33
2023-05-23T17:44:33.744Z,43.58
2023-05-23T17:47:02.101Z,43.49
2023-05-23T17:49:30.847Z,44.05
2023-05-23T17:51:59.761Z,43.98
2023-05-23T17:54:27.668Z,44.07
2023-05-23T17:56:55.773Z,44.23
2023-05-23T17:59:23.966Z,44.73
2023-05-23T18:01:51.855Z,44.97
2023-05-23T18:04:19.844Z,45.95
2023-05-23T18:06:47.938Z,46.53
2023-05-23T18:09:16.698Z,47.09
2023-05-23T18:11:44.674Z,47.52
2023-05-23T18:14:12.966Z,48.09
2023-05-23T18:16:41.521Z,48.84
2023-05-23T18:19:09.766Z,48.89
2023-05-23T18:21:38.118Z,49.21
2023-05-23T18:24:06.706Z,49.32
2023-05-23T18:26:34.653Z,49.40
2023-05-23T18:29:04.665Z,49.61
2023-05-23T18:31:32.526Z,49.89
2023-05-23T18:34:01.023Z,50.06
2023-05-23T18:36:29.386Z,50.26
2023-05-23T18:38:57.447Z,50.45
2023-05-23T18:41:28.125Z,50.62
2023-05-23T18:43:56.381Z,50.96
2023-05-23T18:46:25.680Z,51.19
2023-05-23T18:48:53.750Z,51.49
2023-05-23T18:51:22.327Z,51.61
2023-05-23T18:53:50.214Z,51.87
2023-05-23T18:56:21.925Z,52.08
2023-05-23T18:58:51.942Z,52.30
2023-05-23T19:01:19.989Z,52.52
2023-05-23T19:03:48.790Z,52.86
2023-05-23T19:06:16.941Z,52.94
2023-05-23T19:08:45.198Z,53.22
2023-05-23T19:11:13.737Z,53.44
2023-05-23T19:13:41.639Z,53.53
2023-05-23T19:16:10.215Z,53.71
2023-05-23T19:18:38.218Z,53.59
2023-05-23T19:21:06.155Z,53.82
2023-05-23T19:23:34.423Z,53.95
2023-05-23T19:26:02.398Z,54.16
2023-05-23T19:28:30.462Z,54.08
2023-05-23T19:30:58.312Z,54.11
2023-05-23T19:33:26.525Z,54.38
2023-05-23T19:35:55.024Z,54.51
2023-05-23T19:38:22.877Z,54.78
2023-05-23T19:40:51.452Z,55.07
2023-05-23T19:43:19.324Z,55.25
2023-05-23T19:45:47.244Z,55.63
2023-05-23T19:48:15.427Z,55.96
2023-05-23T19:50:44.096Z,56.23
2023-05-23T19:53:12.206Z,56.54
2023-05-23T19:55:40.213Z,56.68
2023-05-23T19:58:08.422Z,57.09
2023-05-23T20:00:37.551Z,57.17
2023-05-23T20:03:07.121Z,57.47
2023-05-23T20:05:37.004Z,57.56
2023-05-23T20:08:05.559Z,57.62
2023-05-23T20:10:33.975Z,57.85
2023-05-23T20:20:38.024Z,58.59
2023-05-23T20:23:07.226Z,58.85
2023-05-23T20:25:35.733Z,58.85
2023-05-23T20:28:05.799Z,59.03
2023-05-23T20:30:35.494Z,59.22
2023-05-23T20:33:04.137Z,59.34
2023-05-23T20:35:33.724Z,59.59
2023-05-23T20:38:01.960Z,59.68
2023-05-23T20:40:33.692Z,59.77
2023-05-23T20:43:04.856Z,60.03
2023-05-23T20:45:33.579Z,59.99
2023-05-23T20:48:01.871Z,60.11
2023-05-23T20:50:31.733Z,60.33
2023-05-23T20:53:02.359Z,60.39
2023-05-23T20:55:30.844Z,60.61
2023-05-23T20:57:58.751Z,60.57
2023-05-23T21:00:26.658Z,60.65
2023-05-23T21:02:54.740Z,60.76
2023-05-23T21:05:22.920Z,60.79
2023-05-23T21:07:50.819Z,60.95
2023-05-23T21:10:18.759Z,61.00
2023-05-23T21:12:50.366Z,61.11
2023-05-23T21:15:19.086Z,61.28
2023-05-23T21:17:47.568Z,61.48
2023-05-23T21:20:16.325Z,61.63
2023-05-23T21:22:44.774Z,61.76
2023-05-23T21:25:12.854Z,61.98
2023-05-23T21:27:40.873Z,62.30
2023-05-23T21:30:10.644Z,62.45
2023-05-23T21:32:38.730Z,62.59
2023-05-23T21:35:07.223Z,62.77
2023-05-23T21:37:35.079Z,62.72
2023-05-23T21:40:03.199Z,62.84
2023-05-23T21:42:31.206Z,63.03
2023-05-23T21:44:59.575Z,63.02
2023-05-23T21:47:27.546Z,63.08
2023-05-23T21:49:55.570Z,63.25
2023-05-23T21:52:23.425Z,63.39
2023-05-23T21:54:51.902Z,63.38
2023-05-23T21:57:19.911Z,63.60
2023-05-23T21:59:47.826Z,63.66
2023-05-23T22:02:15.935Z,63.75
2023-05-23T22:04:45.031Z,63.97
2023-05-23T22:07:13.101Z,64.10
2023-05-23T22:09:41.153Z,64.21
2023-05-23T22:12:09.389Z,64.27
2023-05-23T22:14:37.237Z,64.37
2023-05-23T22:17:05.405Z,64.38
2023-05-23T22:19:33.279Z,64.51
2023-05-23T22:22:01.293Z,64.69
2023-05-23T22:24:29.314Z,64.71
2023-05-23T22:26:58.416Z,64.80
2023-05-23T22:29:27.313Z,64.87
2023-05-23T22:31:55.330Z,65.10
2023-05-23T22:34:23.298Z,65.25
2023-05-23T22:36:52.325Z,65.38
2023-05-23T22:39:20.288Z,65.35
2023-05-23T22:41:48.234Z,65.53
2023-05-23T22:44:16.206Z,65.69
2023-05-23T22:46:44.586Z,65.73
2023-05-23T22:49:12.704Z,65.75
2023-05-23T22:51:40.753Z,65.70
2023-05-23T22:54:08.636Z,65.92
2023-05-23T22:56:36.546Z,66.10
2023-05-23T22:59:04.380Z,66.16
2023-05-23T23:01:33.514Z,66.25
2023-05-23T23:04:01.505Z,66.25
2023-05-23T23:06:29.560Z,66.29
2023-05-23T23:08:57.450Z,66.15
2023-05-23T23:11:26.011Z,66.08
2023-05-23T23:13:53.994Z,66.02
2023-05-23T23:16:22.041Z,66.05
2023-05-23T23:18:50.008Z,66.01
2023-05-23T23:21:19.168Z,65.98
2023-05-23T23:23:47.082Z,65.83
2023-05-23T23:26:14.918Z,65.84
2023-05-23T23:28:42.922Z,65.79
2023-05-23T23:31:11.069Z,65.72
2023-05-23T23:33:38.966Z,65.84
2023-05-23T23:36:07.048Z,65.90
2023-05-23T23:38:35.004Z,66.03
2023-05-23T23:41:02.980Z,66.12
2023-05-23T23:43:31.405Z,66.25
2023-05-23T23:45:59.350Z,66.54
2023-05-23T23:48:27.273Z,66.47
2023-05-23T23:50:55.080Z,66.39
2023-05-23T23:53:23.682Z,66.39
2023-05-23T23:55:51.510Z,66.43
2023-05-23T23:58:19.478Z,66.38
